Centereach, New York
Current Conditions -  °F | °C
As of 6:56 PM on Monday 20 Oct 2014 (Local Time) from KISP Reporting Station
Broken Clouds Broken Clouds  
Wind Chill: 56°   Ceiling: 26000
Heat Index: 56°   Visibility: 10mi
Dew Point: 42°   Wind: 7mph
Humidity: 60%   Direction: 210°SSW
Pressure: 29.98"   Gusts: NA
Location:  40.86°N, 73.08°W
Report Text: KISP 202256Z 21006KT 10SM FEW150 SCT200 BKN260 13/06 A2998 RMK AO2 SLP152 T01330056
Loading
Personal Weather Stations






























Interactive Weather Map
Tropical Storm Tracking
New forecast layout! Learn more

10-Day Weather Forecast

Advertisements
Track Severe Weather on mobile